Time;durP1;ratioP1;P1;durP2;ratioP2;P2;SDS_P1;SDS_P2;PMS_P1;PMS_P2;Temp;Humidity;BMP_temperature;BMP_pressure;BME280_temperature;BME280_humidity;BME280_pressure;Samples;Min_cycle;Max_cycle;Signal;HPM_P1;HPM_P2
2022/10/26 00:00:48;;;;;;;5.22;4.93;;;;;;;10.17;100.00;101005.00;6079934;23;20030;-73
2022/10/26 00:03:15;;;;;;;4.95;4.57;;;;;;;10.58;100.00;101049.53;6060319;23;20029;-75
2022/10/26 00:05:42;;;;;;;4.70;4.38;;;;;;;10.31;100.00;101014.91;6064974;23;20457;-75
2022/10/26 00:08:09;;;;;;;5.60;5.20;;;;;;;10.38;100.00;101015.47;6021414;23;20014;-74
2022/10/26 00:10:37;;;;;;;4.28;4.07;;;;;;;10.09;100.00;100959.09;6052617;23;20075;-74
2022/10/26 00:13:04;;;;;;;4.93;4.47;;;;;;;10.67;100.00;101058.72;6051480;23;20041;-74
2022/10/26 00:15:31;;;;;;;4.72;4.43;;;;;;;10.70;100.00;101049.84;6055914;23;20022;-74
2022/10/26 00:17:57;;;;;;;4.70;4.50;;;;;;;10.58;100.00;101020.66;6046073;23;20015;-75
2022/10/26 00:20:23;;;;;;;5.22;4.55;;;;;;;10.57;100.00;101010.22;6090081;23;20670;-75
2022/10/26 00:22:50;;;;;;;4.70;4.40;;;;;;;10.40;100.00;100982.13;6059753;23;20601;-74
2022/10/26 00:25:16;;;;;;;4.85;4.63;;;;;;;10.41;100.00;100967.25;6079875;23;20357;-74
2022/10/26 00:27:43;;;;;;;4.65;4.35;;;;;;;10.13;100.00;100921.31;6056685;23;20687;-75
2022/10/26 00:30:09;;;;;;;5.00;4.70;;;;;;;10.50;100.00;100987.78;6084817;23;20029;-74
2022/10/26 00:32:35;;;;;;;4.82;4.43;;;;;;;10.43;100.00;100975.91;6047703;23;20030;-75
2022/10/26 00:35:02;;;;;;;4.30;4.10;;;;;;;10.78;100.00;101027.59;6083352;23;20022;-74
2022/10/26 00:37:48;;;;;;;4.82;4.53;;;;;;;10.68;100.00;101017.56;6055464;23;20029;-74
2022/10/26 00:40:15;;;;;;;5.20;4.80;;;;;;;10.86;100.00;101034.22;6072049;23;20019;-76
2022/10/26 00:42:41;;;;;;;7.10;4.28;;;;;;;10.85;100.00;101029.91;6051992;23;20026;-74
2022/10/26 00:45:29;;;;;;;5.10;4.80;;;;;;;10.86;100.00;101040.31;6081326;23;20035;-74
2022/10/26 00:48:01;;;;;;;5.03;4.72;;;;;;;10.72;100.00;101016.50;6046960;23;20010;-72
2022/10/26 00:50:32;;;;;;;5.00;4.70;;;;;;;10.88;100.00;101040.25;6085338;23;20112;-73
2022/10/26 00:53:02;;;;;;;8.82;4.60;;;;;;;10.81;100.00;101021.31;6045146;23;20634;-73
2022/10/26 00:55:33;;;;;;;4.70;4.43;;;;;;;10.90;100.00;101038.41;6082996;23;20058;-74
2022/10/26 00:58:03;;;;;;;4.50;4.30;;;;;;;10.94;100.00;101037.31;6047947;23;20037;-75
2022/10/26 01:00:29;;;;;;;4.57;4.38;;;;;;;10.41;100.00;100941.03;6065642;23;20483;-74
2022/10/26 01:03:00;;;;;;;4.97;4.68;;;;;;;10.60;100.00;100965.44;6049147;23;20030;-77
2022/10/26 01:05:26;;;;;;;4.60;4.40;;;;;;;11.04;100.00;101030.69;6047451;23;20025;-74
2022/10/26 01:07:53;;;;;;;5.22;4.30;;;;;;;11.06;100.00;101031.47;6045962;23;19999;-74
2022/10/26 01:10:20;;;;;;;12.70;5.72;;;;;;;11.06;100.00;101049.00;6048819;23;20585;-74
2022/10/26 01:12:46;;;;;;;4.88;4.57;;;;;;;10.08;100.00;100882.19;6049236;23;20408;-75
2022/10/26 01:15:13;;;;;;;4.53;4.30;;;;;;;10.89;100.00;101007.84;6067848;23;20015;-74
2022/10/26 01:17:54;;;;;;;4.50;4.30;;;;;;;11.08;100.00;101020.91;6049041;23;20018;-75
2022/10/26 01:20:32;;;;;;;4.40;4.20;;;;;;;11.09;100.00;101018.22;6071672;23;20022;-75
2022/10/26 01:23:18;;;;;;;4.93;4.57;;;;;;;10.36;100.00;100888.75;6063036;23;20031;-75
2022/10/26 01:26:02;;;;;;;4.80;4.50;;;;;;;11.16;100.00;101011.75;6078847;23;20601;-74
2022/10/26 01:29:07;;;;;;;4.40;4.20;;;;;;;11.18;100.00;101009.00;6047359;23;20014;-75
2022/10/26 01:31:58;;;;;;;4.60;4.40;;;;;;;10.78;100.00;100922.56;6077578;23;20049;-76
2022/10/26 01:34:35;;;;;;;4.70;4.40;;;;;;;11.30;100.00;101010.19;6053797;23;20028;-76
2022/10/26 01:37:11;;;;;;;4.50;4.30;;;;;;;11.15;100.00;101002.13;6067089;23;20122;-74
2022/10/26 01:39:46;;;;;;;5.22;4.75;;;;;;;11.28;100.00;101012.03;6054171;23;20044;-74
2022/10/26 01:42:15;;;;;;;4.80;4.50;;;;;;;11.01;100.00;100962.59;6074309;23;20025;-74
2022/10/26 01:44:51;;;;;;;5.25;4.38;;;;;;;11.32;100.00;101006.53;6046458;23;20353;-76
2022/10/26 01:47:20;;;;;;;5.28;4.80;;;;;;;10.76;100.00;100908.66;6072522;23;20084;-75
2022/10/26 01:49:52;;;;;;;4.50;4.30;;;;;;;10.74;100.00;100901.78;6024607;23;20499;-76
2022/10/26 01:52:19;;;;;;;6.15;4.38;;;;;;;11.24;100.00;100981.59;6072184;23;20088;-76
2022/10/26 01:54:45;;;;;;;4.35;4.15;;;;;;;11.30;100.00;101000.50;6052127;23;20079;-75
2022/10/26 01:57:15;;;;;;;6.70;4.47;;;;;;;11.08;100.00;100952.63;6081685;23;20030;-75
2022/10/26 02:00:04;;;;;;;4.90;4.60;;;;;;;11.16;100.00;100971.47;6042266;23;20087;-75
2022/10/26 02:02:52;;;;;;;4.57;4.38;;;;;;;11.07;100.00;100953.56;6053671;23;20609;-75
2022/10/26 02:05:31;;;;;;;4.93;4.63;;;;;;;11.36;100.00;100999.34;6049940;23;20035;-73
2022/10/26 02:08:25;;;;;;;4.88;4.68;;;;;;;11.37;100.00;100990.56;6073355;23;20017;-75
2022/10/26 02:11:18;;;;;;;4.90;4.60;;;;;;;11.40;100.00;100987.75;6047345;23;20026;-74
2022/10/26 02:14:06;;;;;;;4.60;4.40;;;;;;;11.41;100.00;100991.25;6081509;23;20072;-74
2022/10/26 02:16:39;;;;;;;4.47;4.25;;;;;;;11.24;100.00;100952.69;6037832;23;20077;-74
2022/10/26 02:19:23;;;;;;;4.68;4.47;;;;;;;10.92;100.00;100900.00;6046813;23;20629;-75
2022/10/26 02:22:00;;;;;;;4.88;4.57;;;;;;;11.35;100.00;100964.34;6055862;23;20562;-75
2022/10/26 02:24:27;;;;;;;9.88;4.40;;;;;;;11.34;100.00;100946.03;6055373;23;20439;-74
2022/10/26 02:26:55;;;;;;;4.72;4.43;;;;;;;11.33;100.00;100944.34;6054451;23;20041;-75
2022/10/26 02:29:23;;;;;;;4.45;4.25;;;;;;;11.64;100.00;100979.53;6075637;23;20067;-74
2022/10/26 02:31:50;;;;;;;4.28;4.07;;;;;;;11.52;100.00;100960.84;6033101;23;20076;-74
2022/10/26 02:34:21;;;;;;;4.60;4.40;;;;;;;11.11;100.00;100869.25;6050845;23;20026;-75
2022/10/26 02:36:52;;;;;;;4.50;4.30;;;;;;;11.76;100.00;100977.09;6058589;23;20748;-74
2022/10/26 02:39:20;;;;;;;6.25;4.50;;;;;;;11.73;100.00;100971.19;6075828;23;20025;-75
2022/10/26 02:41:48;;;;;;;4.95;4.60;;;;;;;11.30;100.00;100900.66;6044873;23;20089;-75
2022/10/26 02:45:05;;;;;;;4.78;4.57;;;;;;;11.13;100.00;100861.31;6068188;23;20509;-74
2022/10/26 02:47:32;;;;;;;5.13;4.82;;;;;;;11.34;100.00;100910.09;6023503;23;20081;-75
2022/10/26 02:49:59;;;;;;;5.07;4.78;;;;;;;11.06;100.00;100862.53;6069716;23;20043;-74
2022/10/26 02:52:44;;;;;;;4.95;4.65;;;;;;;10.97;100.00;100856.00;6050310;23;20026;-74
2022/10/26 02:55:16;;;;;;;4.75;4.50;;;;;;;11.77;100.00;100975.34;6078668;23;20093;-74
2022/10/26 02:57:49;;;;;;;4.53;4.32;;;;;;;11.36;100.00;100921.38;6028789;23;20014;-74
2022/10/26 03:00:18;;;;;;;4.68;4.47;;;;;;;11.75;100.00;100977.22;6063731;23;20027;-76
2022/10/26 03:02:51;;;;;;;4.78;4.50;;;;;;;11.76;100.00;100973.63;6024505;23;20018;-75
2022/10/26 03:05:26;;;;;;;10.25;4.90;;;;;;;11.78;100.00;100971.78;6074482;23;20517;-74
2022/10/26 03:07:54;;;;;;;4.70;4.50;;;;;;;11.83;100.00;100966.28;6031282;23;20015;-75
2022/10/26 03:10:21;;;;;;;4.90;4.70;;;;;;;11.58;100.00;100926.34;6075098;23;20026;-74
2022/10/26 03:12:47;;;;;;;4.80;4.40;;;;;;;11.58;100.00;100941.28;6046255;23;20019;-74
2022/10/26 03:15:14;;;;;;;4.70;4.50;;;;;;;11.71;100.00;100950.22;6077947;23;20030;-73
2022/10/26 03:17:41;;;;;;;4.60;4.40;;;;;;;11.61;100.00;100911.38;6042012;23;20026;-74
2022/10/26 03:20:08;;;;;;;5.47;5.00;;;;;;;11.95;100.00;100961.25;6071061;23;20623;-74
2022/10/26 03:22:34;;;;;;;5.07;4.78;;;;;;;11.48;100.00;100885.72;6063350;23;20042;-75
2022/10/26 03:25:01;;;;;;;4.90;4.60;;;;;;;11.90;100.00;100958.00;6053292;23;20554;-74
2022/10/26 03:27:28;;;;;;;4.50;4.30;;;;;;;11.31;100.00;100856.88;6080323;23;20606;-74
2022/10/26 03:29:55;;;;;;;4.50;4.30;;;;;;;11.82;100.00;100944.38;6044802;23;20097;-76
2022/10/26 03:32:21;;;;;;;5.10;4.70;;;;;;;11.00;100.00;100816.44;6031381;23;20019;-75
2022/10/26 03:34:47;;;;;;;4.90;4.60;;;;;;;11.55;100.00;100910.75;6078688;23;20026;-74
2022/10/26 03:37:14;;;;;;;4.55;4.30;;;;;;;11.83;100.00;100945.25;6052859;23;20025;-74
2022/10/26 03:39:40;;;;;;;5.13;4.38;;;;;;;11.97;100.00;100953.28;6054551;23;20026;-75
2022/10/26 03:42:06;;;;;;;4.95;4.70;;;;;;;11.70;100.00;100926.66;6072144;23;20087;-75
2022/10/26 03:44:33;;;;;;;4.40;4.20;;;;;;;11.98;100.00;100958.44;6047207;23;20037;-74
2022/10/26 03:46:59;;;;;;;4.50;4.30;;;;;;;11.72;100.00;100932.66;6082588;23;20076;-75
2022/10/26 03:49:25;;;;;;;4.55;4.35;;;;;;;11.20;100.00;100843.44;6039662;23;20022;-76
2022/10/26 03:51:52;;;;;;;5.10;4.72;;;;;;;11.97;100.00;100956.75;6071018;23;20078;-75
2022/10/26 03:54:18;;;;;;;5.10;4.80;;;;;;;11.72;100.00;100922.16;6023901;23;20031;-73
2022/10/26 03:56:44;;;;;;;4.85;4.60;;;;;;;11.84;100.00;100926.75;6075991;23;20030;-73
2022/10/26 03:59:16;;;;;;;5.93;4.70;;;;;;;11.57;100.00;100872.09;6046089;23;20006;-74
2022/10/26 04:01:42;;;;;;;5.18;4.50;;;;;;;12.08;100.00;100950.91;6068091;23;20018;-73
2022/10/26 04:04:09;;;;;;;8.65;4.40;;;;;;;11.80;100.00;100896.28;6055208;23;20078;-74
2022/10/26 04:06:35;;;;;;;5.00;4.70;;;;;;;11.46;100.00;100856.03;6051808;23;20607;-75
2022/10/26 04:09:02;;;;;;;4.85;4.60;;;;;;;11.87;100.00;100892.41;6043143;23;20037;-76
2022/10/26 04:11:29;;;;;;;4.60;4.20;;;;;;;12.26;100.00;100941.16;6056234;23;20071;-74
2022/10/26 04:14:18;;;;;;;17.50;16.50;;;;;;;11.64;100.00;100840.22;5922124;23;20485;-75
2022/10/26 04:16:45;;;;;;;5.13;4.82;;;;;;;11.86;100.00;100868.81;6053526;23;20018;-74
2022/10/26 04:19:11;;;;;;;4.97;4.68;;;;;;;12.44;100.00;100946.34;6049184;23;20030;-74
2022/10/26 04:21:38;;;;;;;5.03;4.82;;;;;;;12.41;100.00;100959.66;6083306;23;20040;-73
2022/10/26 04:24:04;;;;;;;4.88;4.68;;;;;;;12.15;100.00;100927.75;6051062;23;20034;-74
2022/10/26 04:26:31;;;;;;;4.97;4.57;;;;;;;12.02;100.00;100903.91;6079670;23;20022;-77
2022/10/26 04:28:57;;;;;;;5.22;4.93;;;;;;;12.42;100.00;100964.00;6042459;23;20027;-73
2022/10/26 04:31:24;;;;;;;12.55;5.07;;;;;;;12.24;100.00;100936.91;6065452;23;20042;-74
2022/10/26 04:33:50;;;;;;;5.05;4.75;;;;;;;11.85;100.00;100878.50;6020613;23;20038;-74
2022/10/26 04:36:16;;;;;;;4.40;4.20;;;;;;;12.31;100.00;100957.56;6070774;23;20088;-75
2022/10/26 04:38:43;;;;;;;5.22;4.80;;;;;;;12.30;100.00;100960.25;6047029;23;20022;-76
2022/10/26 04:41:09;;;;;;;5.07;4.78;;;;;;;12.24;100.00;100956.19;6075711;23;20025;-74
2022/10/26 04:43:35;;;;;;;6.47;4.60;;;;;;;11.95;100.00;100916.53;6046826;23;20018;-75
2022/10/26 04:46:02;;;;;;;5.22;4.90;;;;;;;12.27;100.00;100963.91;6041003;23;20097;-75
2022/10/26 04:48:28;;;;;;;5.25;4.85;;;;;;;11.75;100.00;100888.66;6047231;23;20069;-74
2022/10/26 04:50:58;;;;;;;4.53;4.32;;;;;;;11.85;100.00;100917.94;6055649;23;20047;-75
2022/10/26 04:53:25;;;;;;;4.68;4.40;;;;;;;11.85;100.00;100896.91;6077042;23;20411;-75
2022/10/26 04:55:58;;;;;;;4.72;4.32;;;;;;;11.66;100.00;100869.91;6038889;23;20034;-75
2022/10/26 04:58:26;;;;;;;4.57;4.38;;;;;;;12.25;100.00;100960.53;6046493;23;20018;-75
2022/10/26 05:00:52;;;;;;;4.78;4.53;;;;;;;12.01;100.00;100919.75;6047914;23;20506;-74
2022/10/26 05:03:19;;;;;;;4.82;4.53;;;;;;;12.29;100.00;100964.69;6077201;23;20018;-75
2022/10/26 05:05:49;;;;;;;4.90;4.70;;;;;;;11.70;100.00;100863.53;6016097;23;20050;-74
2022/10/26 05:08:15;;;;;;;4.80;4.60;;;;;;;12.37;100.00;100959.84;6041022;23;20014;-75
2022/10/26 05:10:42;;;;;;;4.65;4.35;;;;;;;12.37;100.00;100965.09;6043334;23;20035;-74
2022/10/26 05:13:09;;;;;;;5.00;4.68;;;;;;;12.40;100.00;100956.19;6083733;23;20029;-75
2022/10/26 05:15:36;;;;;;;5.03;4.72;;;;;;;12.20;100.00;100909.91;6029688;23;20010;-76
2022/10/26 05:18:07;;;;;;;5.28;4.97;;;;;;;12.46;100.00;100960.25;6076593;23;20663;-75
2022/10/26 05:20:35;;;;;;;5.07;4.70;;;;;;;12.27;100.00;100913.09;6025294;23;20027;-76
2022/10/26 05:23:03;;;;;;;4.53;4.30;;;;;;;12.22;100.00;100933.53;6074525;23;20010;-73
2022/10/26 05:25:33;;;;;;;6.45;4.78;;;;;;;12.40;100.00;100939.56;6039049;23;20087;-75
2022/10/26 05:28:13;;;;;;;5.03;4.78;;;;;;;12.06;100.00;100896.69;6079164;23;20084;-75
2022/10/26 05:30:41;;;;;;;4.93;4.63;;;;;;;12.53;100.00;100962.47;6044084;23;20021;-73
2022/10/26 05:33:10;;;;;;;4.70;4.50;;;;;;;12.48;100.00;100948.69;6078875;23;20089;-76
2022/10/26 05:35:36;;;;;;;6.25;4.93;;;;;;;12.54;100.00;100950.16;6040332;23;20069;-75
2022/10/26 05:38:11;;;;;;;4.88;4.57;;;;;;;11.52;100.00;100771.59;6067846;23;20022;-74
2022/10/26 05:40:38;;;;;;;4.70;4.50;;;;;;;12.52;100.00;100947.59;6047950;23;20022;-75
2022/10/26 05:43:04;;;;;;;5.03;4.72;;;;;;;12.58;100.00;100933.25;6067466;23;20720;-76
2022/10/26 05:45:30;;;;;;;7.25;4.50;;;;;;;12.27;100.00;100892.03;6041247;23;20041;-75
2022/10/26 05:47:57;;;;;;;5.13;4.82;;;;;;;11.88;100.00;100830.97;6046669;23;20081;-76
2022/10/26 05:50:28;;;;;;;4.68;4.47;;;;;;;12.56;100.00;100945.66;6055480;23;20017;-74
2022/10/26 05:52:54;;;;;;;5.00;4.70;;;;;;;12.55;100.00;100946.59;6041977;23;20379;-75
2022/10/26 05:55:21;;;;;;;4.75;4.55;;;;;;;12.07;100.00;100883.47;6068997;23;20047;-75
2022/10/26 05:57:48;;;;;;;5.20;4.90;;;;;;;12.49;100.00;100954.84;6052998;23;20608;-76
2022/10/26 06:00:20;;;;;;;5.13;4.85;;;;;;;12.32;100.00;100953.97;6079810;23;20096;-76
2022/10/26 06:03:11;;;;;;;5.10;4.70;;;;;;;12.47;100.00;100975.09;6060369;23;20029;-73
2022/10/26 06:05:51;;;;;;;4.68;4.47;;;;;;;12.30;100.00;100950.56;6079925;23;20022;-75
2022/10/26 06:08:19;;;;;;;4.82;4.63;;;;;;;12.49;100.00;100984.63;6055696;23;20029;-76
2022/10/26 06:10:47;;;;;;;4.97;4.68;;;;;;;12.51;100.00;100976.66;6082686;23;20021;-76
2022/10/26 06:13:17;;;;;;;4.72;4.53;;;;;;;12.54;100.00;100981.75;6052585;23;20026;-74
2022/10/26 06:16:00;;;;;;;6.78;4.50;;;;;;;12.55;100.00;100986.09;6062657;23;20014;-73
2022/10/26 06:18:45;;;;;;;4.72;4.53;;;;;;;12.56;100.00;100985.13;6034501;23;20087;-75
2022/10/26 06:21:32;;;;;;;5.18;4.72;;;;;;;12.14;100.00;100920.78;6086746;23;20466;-76
2022/10/26 06:24:23;;;;;;;4.95;4.72;;;;;;;12.56;100.00;100983.34;6060375;23;20053;-74
2022/10/26 06:26:56;;;;;;;5.10;4.80;;;;;;;12.61;100.00;100977.84;6052670;23;20018;-74
2022/10/26 06:30:03;;;;;;;5.13;4.82;;;;;;;12.20;100.00;100894.13;6060313;23;20096;-74
2022/10/26 06:32:29;;;;;;;5.10;4.70;;;;;;;12.63;100.00;100952.28;6050976;23;20072;-75
2022/10/26 06:35:22;;;;;;;5.70;4.70;;;;;;;12.71;100.00;100965.84;6058436;23;20025;-75
2022/10/26 06:37:49;;;;;;;5.07;4.72;;;;;;;12.94;100.00;100972.41;6085062;23;20038;-75
2022/10/26 06:40:17;;;;;;;4.88;4.57;;;;;;;12.93;100.00;100965.47;6044909;18;20087;-72
2022/10/26 06:42:44;;;;;;;9.65;4.93;;;;;;;12.98;100.00;100971.31;6059906;23;20499;-76
2022/10/26 06:45:15;;;;;;;5.10;4.80;;;;;;;12.94;100.00;100955.78;6047652;23;20042;-74
2022/10/26 06:47:57;;;;;;;7.38;4.70;;;;;;;13.09;100.00;100967.19;6080129;23;20576;-72
2022/10/26 06:50:26;;;;;;;15.93;4.97;;;;;;;13.12;100.00;100974.94;6028964;23;20026;-74
2022/10/26 06:53:02;;;;;;;5.55;5.15;;;;;;;13.11;100.00;100973.22;6034917;23;20007;-75
2022/10/26 06:55:36;;;;;;;5.20;4.90;;;;;;;12.27;100.00;100842.03;6013078;23;20077;-75
2022/10/26 06:58:03;;;;;;;4.97;4.68;;;;;;;12.65;100.00;100895.09;6029150;23;20030;-74
2022/10/26 07:00:30;;;;;;;5.05;4.82;;;;;;;13.08;100.00;100974.25;6018932;23;20617;-76
2022/10/26 07:02:58;;;;;;;4.90;4.60;;;;;;;12.27;100.00;100844.66;6051555;23;20025;-75
2022/10/26 07:05:25;;;;;;;4.75;4.55;;;;;;;12.75;100.00;100933.13;5995238;23;20345;-75
2022/10/26 07:07:51;;;;;;;4.70;4.50;;;;;;;13.20;100.00;100998.22;6040676;23;20049;-75
2022/10/26 07:10:18;;;;;;;4.70;4.50;;;;;;;13.03;100.00;100960.50;6027258;23;20029;-76
2022/10/26 07:12:44;;;;;;;4.85;4.65;;;;;;;12.65;100.00;100878.44;6046538;23;20023;-75
2022/10/26 07:15:11;;;;;;;5.20;4.80;;;;;;;13.17;100.00;100952.66;6026936;23;20417;-74
2022/10/26 07:17:45;;;;;;;5.05;4.75;;;;;;;13.27;100.00;100963.50;6014446;23;20027;-77
2022/10/26 07:20:12;;;;;;;8.88;5.00;;;;;;;13.64;100.00;101007.94;6007886;23;20037;-74
2022/10/26 07:22:39;;;;;;;4.75;4.55;;;;;;;13.32;100.00;100950.91;6009331;23;21167;-74
2022/10/26 07:25:06;;;;;;;4.60;4.40;;;;;;;13.79;100.00;101011.44;6007316;23;20035;-76
2022/10/26 07:27:33;;;;;;;5.05;4.80;;;;;;;13.59;100.00;100976.56;6004600;23;20073;-76
2022/10/26 07:30:01;;;;;;;5.35;5.05;;;;;;;13.63;100.00;100970.19;6002653;23;20030;-75
2022/10/26 07:32:30;;;;;;;5.68;4.93;;;;;;;13.67;100.00;100984.00;6007284;23;20035;-74
2022/10/26 07:34:56;;;;;;;5.15;4.85;;;;;;;13.71;100.00;100982.88;6025334;23;20023;-75
2022/10/26 07:37:23;;;;;;;5.25;4.95;;;;;;;14.00;100.00;101028.59;6016974;23;20659;-74
2022/10/26 07:39:49;;;;;;;5.35;5.03;;;;;;;13.72;100.00;100995.97;6035936;23;20045;-74
2022/10/26 07:42:15;;;;;;;4.80;4.60;;;;;;;13.90;100.00;101011.63;6050227;23;20559;-76
2022/10/26 07:44:42;;;;;;;5.30;5.00;;;;;;;14.08;100.00;101021.06;6032766;23;20023;-72
2022/10/26 07:47:08;;;;;;;5.25;4.65;;;;;;;14.13;100.00;101013.72;6066446;23;20084;-76
2022/10/26 07:49:35;;;;;;;5.38;4.97;;;;;;;13.89;100.00;100957.16;6071673;23;20014;-75
2022/10/26 07:52:04;;;;;;;5.47;5.18;;;;;;;14.32;100.00;101033.69;6073515;23;20033;-74
2022/10/26 07:54:31;;;;;;;5.70;5.18;;;;;;;14.14;100.00;100998.72;6069712;23;20018;-74
2022/10/26 07:56:58;;;;;;;6.72;5.20;;;;;;;14.32;100.00;101034.50;6065632;23;20091;-77
2022/10/26 07:59:24;;;;;;;5.18;4.88;;;;;;;14.11;100.00;100998.88;6095340;23;20026;-72
2022/10/26 08:01:51;;;;;;;5.32;5.03;;;;;;;14.21;100.00;101022.94;6037069;23;20042;-72
2022/10/26 08:04:18;;;;;;;6.22;5.60;;;;;;;14.40;100.00;101043.75;6070642;23;20049;-73
2022/10/26 08:06:44;;;;;;;5.28;4.97;;;;;;;14.16;100.00;101002.09;6071320;23;20509;-74
2022/10/26 08:09:10;;;;;;;10.48;5.10;;;;;;;14.15;100.00;100982.78;6070007;23;20025;-75
2022/10/26 08:11:37;;;;;;;5.30;5.00;;;;;;;14.53;100.00;101052.59;6046128;23;20026;-74
2022/10/26 08:14:03;;;;;;;5.13;4.82;;;;;;;14.59;100.00;101060.16;6097442;23;20025;-74
2022/10/26 08:16:30;;;;;;;5.50;4.90;;;;;;;14.60;100.00;101059.22;6072956;23;20089;-74
2022/10/26 08:18:56;;;;;;;5.45;5.13;;;;;;;14.19;100.00;100993.13;6071952;23;20026;-75
2022/10/26 08:21:23;;;;;;;5.18;4.88;;;;;;;14.63;100.00;101064.28;6097578;23;20029;-75
2022/10/26 08:24:05;;;;;;;7.75;5.00;;;;;;;14.49;100.00;101049.31;6062858;23;20021;-74
2022/10/26 08:26:31;;;;;;;5.82;4.90;;;;;;;14.76;100.00;101078.44;6071597;23;20010;-75
2022/10/26 08:29:01;;;;;;;5.35;5.05;;;;;;;14.81;100.00;101078.13;6028947;23;20023;-75
2022/10/26 08:31:29;;;;;;;5.63;5.25;;;;;;;14.68;100.00;101056.09;6091805;23;20021;-75
2022/10/26 08:33:56;;;;;;;5.40;5.10;;;;;;;15.05;100.00;101088.91;6066876;23;20437;-74
2022/10/26 08:36:24;;;;;;;5.20;4.97;;;;;;;14.78;100.00;101032.59;6088676;23;20741;-72
2022/10/26 08:38:51;;;;;;;5.45;5.15;;;;;;;14.89;100.00;101028.31;6066520;23;20092;-75
2022/10/26 08:41:30;;;;;;;5.70;5.30;;;;;;;14.78;100.00;100999.09;6078333;23;20500;-74
2022/10/26 08:44:03;;;;;;;5.55;5.25;;;;;;;15.02;100.00;101038.06;6072891;23;20106;-75
2022/10/26 08:46:36;;;;;;;4.93;4.72;;;;;;;14.83;100.00;101017.28;6031891;23;20017;-74
2022/10/26 08:49:15;;;;;;;5.53;5.13;;;;;;;14.90;100.00;101034.44;6053407;23;20029;-75
2022/10/26 08:51:42;;;;;;;5.80;5.30;;;;;;;15.06;100.00;101081.88;6066169;23;20025;-72
2022/10/26 08:54:16;;;;;;;5.07;4.88;;;;;;;15.01;100.00;101081.28;6038970;23;20502;-76
2022/10/26 08:56:56;;;;;;;5.82;5.15;;;;;;;15.04;100.00;101074.03;6089061;23;20096;-76
2022/10/26 08:59:33;;;;;;;5.70;5.20;;;;;;;14.60;100.00;101032.81;6065241;23;20043;-75
2022/10/26 09:02:01;;;;;;;5.20;4.90;;;;;;;14.70;100.00;101065.63;6094622;23;20033;-75
2022/10/26 09:04:34;;;;;;;5.30;5.00;;;;;;;15.14;100.00;101112.13;6062529;23;20105;-74
2022/10/26 09:07:12;;;;;;;5.57;5.25;;;;;;;15.44;100.00;101126.09;6077032;23;20030;-74
2022/10/26 09:10:00;;;;;;;5.47;5.18;;;;;;;15.50;100.00;101101.88;6062024;23;20015;-74
2022/10/26 09:12:39;;;;;;;5.88;5.47;;;;;;;15.46;100.00;101117.09;6068469;23;20035;-74
2022/10/26 09:15:36;;;;;;;6.82;5.50;;;;;;;15.18;100.00;101098.72;6098985;23;20029;-75
2022/10/26 09:18:16;;;;;;;6.10;5.70;;;;;;;15.49;100.00;101129.28;6065352;23;20018;-75
2022/10/26 09:21:05;;;;;;;7.97;5.25;;;;;;;15.59;100.00;101137.47;6064509;23;20063;-74
2022/10/26 09:24:02;;;;;;;5.40;5.10;;;;;;;15.61;100.00;101154.06;6058076;23;20030;-74
2022/10/26 09:26:37;;;;;;;5.60;5.10;;;;;;;15.74;100.00;101141.78;6088394;23;20085;-76
2022/10/26 09:29:10;;;;;;;5.40;5.10;;;;;;;14.99;100.00;101002.09;6043930;23;20110;-73
2022/10/26 09:31:48;;;;;;;5.63;5.22;;;;;;;16.13;100.00;101150.59;6065194;23;20025;-74
2022/10/26 09:34:49;;;;;;;5.68;5.30;;;;;;;16.40;100.00;101152.28;6067572;23;20415;-74
2022/10/26 09:37:24;;;;;;;5.70;5.30;;;;;;;16.38;100.00;101115.34;5974618;23;20493;-74
2022/10/26 09:39:59;;;;;;;5.60;5.30;;;;;;;16.77;100.00;101152.38;6073393;23;20026;-74
2022/10/26 09:42:43;;;;;;;6.55;5.50;;;;;;;16.88;100.00;101155.16;6070603;23;20019;-75
2022/10/26 09:45:26;;;;;;;6.07;5.60;;;;;;;16.80;100.00;101118.56;6066157;23;20120;-72
2022/10/26 09:47:55;;;;;;;5.53;5.22;;;;;;;17.02;99.39;101130.28;6074212;23;20053;-73
2022/10/26 09:50:31;;;;;;;5.65;5.15;;;;;;;16.63;98.22;101065.91;6060542;23;20026;-75
2022/10/26 09:52:58;;;;;;;5.28;4.97;;;;;;;17.07;97.79;101113.06;6036711;23;20022;-74
2022/10/26 09:55:26;;;;;;;6.13;5.68;;;;;;;17.10;96.79;101091.66;6109809;23;20022;-74
2022/10/26 09:57:56;;;;;;;5.80;5.43;;;;;;;17.46;95.63;101150.03;6052086;23;20010;-74
2022/10/26 10:00:24;;;;;;;9.68;5.80;;;;;;;17.68;94.88;101168.75;6103906;23;20536;-74
2022/10/26 10:02:53;;;;;;;6.22;5.82;;;;;;;17.65;94.46;101152.19;6073329;23;20014;-76
2022/10/26 10:05:30;;;;;;;5.95;5.55;;;;;;;17.81;93.46;101154.53;6078502;23;20022;-77
2022/10/26 10:08:21;;;;;;;7.57;5.40;;;;;;;17.94;92.83;101156.19;6064690;23;20034;-73
2022/10/26 10:11:12;;;;;;;5.95;5.50;;;;;;;18.01;92.71;101140.63;6070561;23;20033;-74
2022/10/26 10:13:41;;;;;;;5.47;5.18;;;;;;;18.25;92.32;101169.75;6093844;23;20051;-75
2022/10/26 10:16:20;;;;;;;6.05;5.68;;;;;;;17.50;91.02;101034.75;6038797;23;20030;-75
2022/10/26 10:19:05;;;;;;;6.22;5.80;;;;;;;18.08;90.84;101104.66;6066977;23;20042;-73
2022/10/26 10:21:39;;;;;;;5.70;5.40;;;;;;;18.60;89.85;101183.94;6064445;23;20014;-76
2022/10/26 10:24:27;;;;;;;5.85;5.40;;;;;;;18.69;90.67;101180.56;6062074;23;20821;-74
2022/10/26 10:26:58;;;;;;;5.70;5.40;;;;;;;18.87;89.89;101189.75;6068779;23;20034;-76
2022/10/26 10:29:26;;;;;;;6.97;5.43;;;;;;;18.86;87.77;101160.63;6054704;23;20034;-73
2022/10/26 10:32:01;;;;;;;6.93;6.10;;;;;;;19.13;87.59;101182.34;6086146;23;20083;-76
2022/10/26 10:34:31;;;;;;;6.35;5.82;;;;;;;18.96;87.44;101134.97;6041142;23;20022;-74
2022/10/26 10:37:01;;;;;;;6.07;5.70;;;;;;;18.86;87.83;101104.78;6046990;23;20034;-74
2022/10/26 10:39:39;;;;;;;6.05;5.65;;;;;;;19.15;86.46;101147.66;6028353;23;20026;-74
2022/10/26 10:42:16;;;;;;;5.78;5.47;;;;;;;19.41;87.20;101180.13;6053782;23;20742;-74
2022/10/26 10:44:45;;;;;;;6.07;5.68;;;;;;;19.60;86.19;101200.72;6060206;23;20102;-75
2022/10/26 10:47:21;;;;;;;6.22;5.82;;;;;;;19.46;86.20;101182.38;6035676;23;20113;-73
2022/10/26 10:49:59;;;;;;;6.10;5.80;;;;;;;19.21;84.86;101130.34;6096629;23;20017;-74
2022/10/26 10:52:31;;;;;;;9.15;6.15;;;;;;;19.27;85.32;101137.81;6061691;23;20022;-74
2022/10/26 10:55:13;;;;;;;6.93;6.32;;;;;;;19.54;84.88;101201.25;6044090;23;20631;-75
2022/10/26 10:58:06;;;;;;;6.35;5.85;;;;;;;19.79;85.98;101209.91;6070663;23;20079;-75
2022/10/26 11:00:36;;;;;;;7.70;5.57;;;;;;;19.53;85.27;101135.66;6072759;23;20538;-74
2022/10/26 11:03:28;;;;;;;6.32;5.80;;;;;;;20.00;84.63;101199.28;6072763;23;20098;-74
2022/10/26 11:06:05;;;;;;;6.20;5.70;;;;;;;20.32;84.63;101212.53;6044131;23;20033;-73
2022/10/26 11:08:44;;;;;;;5.90;5.60;;;;;;;20.42;82.52;101208.09;6042685;23;20311;-75
2022/10/26 11:11:24;;;;;;;6.38;6.05;;;;;;;20.20;82.70;101171.78;6069550;23;20041;-73
2022/10/26 11:14:00;;;;;;;5.90;5.60;;;;;;;20.29;80.63;101162.16;6056896;23;20030;-73
2022/10/26 11:16:35;;;;;;;5.75;5.45;;;;;;;20.36;79.89;101152.66;6049907;23;20031;-73
2022/10/26 11:19:19;;;;;;;5.85;5.47;;;;;;;20.30;79.20;101146.00;6055357;23;20018;-72
2022/10/26 11:21:49;;;;;;;5.85;5.55;;;;;;;20.86;78.75;101202.59;6027464;23;20026;-74
2022/10/26 11:24:16;;;;;;;5.70;5.40;;;;;;;21.11;78.92;101204.78;6058848;23;20745;-74
2022/10/26 11:26:59;;;;;;;6.68;5.35;;;;;;;21.05;77.44;101192.00;6060796;23;20014;-73
2022/10/26 11:29:50;;;;;;;5.93;5.55;;;;;;;21.06;76.97;101207.00;6054290;23;20093;-74
2022/10/26 11:32:29;;;;;;;5.80;5.43;;;;;;;20.96;77.69;101183.94;6049376;23;20075;-73
2022/10/26 11:35:17;;;;;;;5.97;5.65;;;;;;;20.79;77.11;101204.97;6063723;23;20634;-75
2022/10/26 11:37:55;;;;;;;5.80;5.38;;;;;;;20.76;78.55;101199.88;6052332;23;20022;-76
2022/10/26 11:40:55;;;;;;;5.35;5.07;;;;;;;20.75;78.28;101202.66;6054835;23;20018;-75
2022/10/26 11:43:29;;;;;;;5.60;5.35;;;;;;;20.98;78.80;101203.34;6031008;23;20038;-75